sensor_id;sensor_type;location;lat;lon;timestamp;P1;durP1;ratioP1;P2;durP2;ratioP2
64297;SDS011;50639;53.270;7.956;2023-03-20T00:01:21;13.85;;;9.60;;
64297;SDS011;50639;53.270;7.956;2023-03-20T00:03:50;15.13;;;9.63;;
64297;SDS011;50639;53.270;7.956;2023-03-20T00:06:20;12.25;;;9.15;;
64297;SDS011;50639;53.270;7.956;2023-03-20T00:08:48;16.55;;;10.77;;
64297;SDS011;50639;53.270;7.956;2023-03-20T00:11:29;16.33;;;10.98;;
64297;SDS011;50639;53.270;7.956;2023-03-20T00:14:01;17.23;;;10.82;;
64297;SDS011;50639;53.270;7.956;2023-03-20T00:16:31;15.95;;;11.48;;
64297;SDS011;50639;53.270;7.956;2023-03-20T00:18:58;18.15;;;12.75;;
64297;SDS011;50639;53.270;7.956;2023-03-20T00:21:24;19.60;;;11.50;;
64297;SDS011;50639;53.270;7.956;2023-03-20T00:23:50;16.05;;;10.27;;
64297;SDS011;50639;53.270;7.956;2023-03-20T00:26:16;15.00;;;9.32;;
64297;SDS011;50639;53.270;7.956;2023-03-20T00:28:46;14.82;;;9.80;;
64297;SDS011;50639;53.270;7.956;2023-03-20T00:33:46;16.20;;;10.23;;
64297;SDS011;50639;53.270;7.956;2023-03-20T00:36:11;14.60;;;9.60;;
64297;SDS011;50639;53.270;7.956;2023-03-20T00:38:38;13.35;;;9.25;;
64297;SDS011;50639;53.270;7.956;2023-03-20T00:41:10;13.98;;;9.73;;
64297;SDS011;50639;53.270;7.956;2023-03-20T00:43:40;12.13;;;8.83;;
64297;SDS011;50639;53.270;7.956;2023-03-20T00:46:07;11.80;;;7.95;;
64297;SDS011;50639;53.270;7.956;2023-03-20T00:48:38;13.13;;;9.02;;
64297;SDS011;50639;53.270;7.956;2023-03-20T00:51:05;12.48;;;8.43;;
64297;SDS011;50639;53.270;7.956;2023-03-20T00:53:31;13.93;;;8.45;;
64297;SDS011;50639;53.270;7.956;2023-03-20T00:55:57;13.75;;;9.45;;
64297;SDS011;50639;53.270;7.956;2023-03-20T00:58:23;12.95;;;8.80;;
64297;SDS011;50639;53.270;7.956;2023-03-20T01:00:49;15.90;;;10.38;;
64297;SDS011;50639;53.270;7.956;2023-03-20T01:03:16;13.13;;;8.55;;
64297;SDS011;50639;53.270;7.956;2023-03-20T01:05:46;12.50;;;8.60;;
64297;SDS011;50639;53.270;7.956;2023-03-20T01:08:16;14.15;;;9.60;;
64297;SDS011;50639;53.270;7.956;2023-03-20T01:10:44;14.82;;;8.85;;
64297;SDS011;50639;53.270;7.956;2023-03-20T01:15:47;12.63;;;8.80;;
64297;SDS011;50639;53.270;7.956;2023-03-20T01:18:14;13.07;;;9.48;;
64297;SDS011;50639;53.270;7.956;2023-03-20T01:20:40;12.10;;;8.17;;
64297;SDS011;50639;53.270;7.956;2023-03-20T01:23:06;12.55;;;9.10;;
64297;SDS011;50639;53.270;7.956;2023-03-20T01:25:32;15.00;;;9.75;;
64297;SDS011;50639;53.270;7.956;2023-03-20T01:27:58;15.10;;;10.23;;
64297;SDS011;50639;53.270;7.956;2023-03-20T01:30:26;17.27;;;9.35;;
64297;SDS011;50639;53.270;7.956;2023-03-20T01:32:54;12.13;;;8.02;;
64297;SDS011;50639;53.270;7.956;2023-03-20T01:35:21;15.18;;;9.18;;
64297;SDS011;50639;53.270;7.956;2023-03-20T01:37:48;13.40;;;8.77;;
64297;SDS011;50639;53.270;7.956;2023-03-20T01:42:58;16.00;;;8.40;;
64297;SDS011;50639;53.270;7.956;2023-03-20T01:45:29;12.05;;;6.60;;
64297;SDS011;50639;53.270;7.956;2023-03-20T01:47:59;12.98;;;8.48;;
64297;SDS011;50639;53.270;7.956;2023-03-20T01:50:28;13.52;;;7.75;;
64297;SDS011;50639;53.270;7.956;2023-03-20T01:53:13;12.57;;;7.70;;
64297;SDS011;50639;53.270;7.956;2023-03-20T01:55:53;13.25;;;7.97;;
64297;SDS011;50639;53.270;7.956;2023-03-20T01:58:30;11.57;;;7.43;;
64297;SDS011;50639;53.270;7.956;2023-03-20T02:03:28;10.97;;;6.90;;
64297;SDS011;50639;53.270;7.956;2023-03-20T02:08:52;9.38;;;6.50;;
64297;SDS011;50639;53.270;7.956;2023-03-20T02:11:19;12.15;;;7.40;;
64297;SDS011;50639;53.270;7.956;2023-03-20T02:13:48;10.98;;;7.22;;
64297;SDS011;50639;53.270;7.956;2023-03-20T02:16:17;9.75;;;6.30;;
64297;SDS011;50639;53.270;7.956;2023-03-20T02:18:59;11.88;;;7.15;;
64297;SDS011;50639;53.270;7.956;2023-03-20T02:30:17;13.07;;;7.63;;
64297;SDS011;50639;53.270;7.956;2023-03-20T02:32:54;12.35;;;6.95;;
64297;SDS011;50639;53.270;7.956;2023-03-20T02:36:17;14.18;;;7.30;;
64297;SDS011;50639;53.270;7.956;2023-03-20T02:41:21;13.65;;;7.22;;
64297;SDS011;50639;53.270;7.956;2023-03-20T02:58:08;11.35;;;7.65;;
64297;SDS011;50639;53.270;7.956;2023-03-20T03:03:17;13.43;;;8.55;;
64297;SDS011;50639;53.270;7.956;2023-03-20T03:05:48;13.45;;;8.32;;
64297;SDS011;50639;53.270;7.956;2023-03-20T03:08:19;13.45;;;8.38;;
64297;SDS011;50639;53.270;7.956;2023-03-20T03:10:51;16.20;;;9.23;;
64297;SDS011;50639;53.270;7.956;2023-03-20T03:13:24;13.68;;;8.80;;
64297;SDS011;50639;53.270;7.956;2023-03-20T03:15:55;16.38;;;8.65;;
64297;SDS011;50639;53.270;7.956;2023-03-20T03:18:30;14.40;;;8.05;;
64297;SDS011;50639;53.270;7.956;2023-03-20T03:21:00;13.27;;;8.27;;
64297;SDS011;50639;53.270;7.956;2023-03-20T03:23:35;15.25;;;8.25;;
64297;SDS011;50639;53.270;7.956;2023-03-20T03:26:23;13.63;;;8.38;;
64297;SDS011;50639;53.270;7.956;2023-03-20T03:28:57;14.32;;;7.20;;
64297;SDS011;50639;53.270;7.956;2023-03-20T03:31:25;12.15;;;7.22;;
64297;SDS011;50639;53.270;7.956;2023-03-20T03:33:54;11.02;;;7.30;;
64297;SDS011;50639;53.270;7.956;2023-03-20T03:39:13;11.63;;;6.95;;
64297;SDS011;50639;53.270;7.956;2023-03-20T03:41:50;12.20;;;7.00;;
64297;SDS011;50639;53.270;7.956;2023-03-20T03:47:07;10.73;;;6.13;;
64297;SDS011;50639;53.270;7.956;2023-03-20T03:49:41;11.00;;;6.10;;
64297;SDS011;50639;53.270;7.956;2023-03-20T03:52:12;9.43;;;5.53;;
64297;SDS011;50639;53.270;7.956;2023-03-20T03:54:43;9.20;;;5.45;;
64297;SDS011;50639;53.270;7.956;2023-03-20T03:57:31;10.07;;;6.00;;
64297;SDS011;50639;53.270;7.956;2023-03-20T04:00:02;11.23;;;5.10;;
64297;SDS011;50639;53.270;7.956;2023-03-20T04:02:38;10.52;;;5.60;;
64297;SDS011;50639;53.270;7.956;2023-03-20T04:05:07;8.82;;;5.30;;
64297;SDS011;50639;53.270;7.956;2023-03-20T04:07:34;10.07;;;5.57;;
64297;SDS011;50639;53.270;7.956;2023-03-20T04:10:00;10.00;;;5.30;;
64297;SDS011;50639;53.270;7.956;2023-03-20T04:15:09;12.77;;;5.88;;
64297;SDS011;50639;53.270;7.956;2023-03-20T04:17:35;10.48;;;5.90;;
64297;SDS011;50639;53.270;7.956;2023-03-20T04:20:02;14.23;;;6.07;;
64297;SDS011;50639;53.270;7.956;2023-03-20T04:22:28;12.33;;;6.80;;
64297;SDS011;50639;53.270;7.956;2023-03-20T04:24:57;10.45;;;6.97;;
64297;SDS011;50639;53.270;7.956;2023-03-20T04:27:25;11.80;;;5.85;;
64297;SDS011;50639;53.270;7.956;2023-03-20T04:29:51;12.82;;;6.15;;
64297;SDS011;50639;53.270;7.956;2023-03-20T04:32:37;11.73;;;6.32;;
64297;SDS011;50639;53.270;7.956;2023-03-20T04:35:16;12.55;;;6.28;;
64297;SDS011;50639;53.270;7.956;2023-03-20T04:37:56;10.35;;;6.40;;
64297;SDS011;50639;53.270;7.956;2023-03-20T04:40:21;12.27;;;6.47;;
64297;SDS011;50639;53.270;7.956;2023-03-20T04:42:47;13.05;;;6.20;;
64297;SDS011;50639;53.270;7.956;2023-03-20T04:45:12;11.73;;;6.70;;
64297;SDS011;50639;53.270;7.956;2023-03-20T04:47:38;12.23;;;6.95;;
64297;SDS011;50639;53.270;7.956;2023-03-20T04:50:08;12.52;;;7.05;;
64297;SDS011;50639;53.270;7.956;2023-03-20T04:52:34;14.02;;;7.50;;
64297;SDS011;50639;53.270;7.956;2023-03-20T04:55:00;12.88;;;6.80;;
64297;SDS011;50639;53.270;7.956;2023-03-20T04:57:26;13.13;;;7.18;;
64297;SDS011;50639;53.270;7.956;2023-03-20T04:59:53;15.38;;;7.18;;
64297;SDS011;50639;53.270;7.956;2023-03-20T05:02:18;14.25;;;7.28;;
64297;SDS011;50639;53.270;7.956;2023-03-20T05:04:44;13.20;;;8.70;;
64297;SDS011;50639;53.270;7.956;2023-03-20T05:07:09;17.92;;;8.43;;
64297;SDS011;50639;53.270;7.956;2023-03-20T05:09:54;13.85;;;8.35;;
64297;SDS011;50639;53.270;7.956;2023-03-20T05:12:20;15.23;;;8.57;;
64297;SDS011;50639;53.270;7.956;2023-03-20T05:15:07;12.38;;;8.05;;
64297;SDS011;50639;53.270;7.956;2023-03-20T05:17:49;13.23;;;8.00;;
64297;SDS011;50639;53.270;7.956;2023-03-20T05:20:36;14.65;;;8.82;;
64297;SDS011;50639;53.270;7.956;2023-03-20T05:23:30;19.05;;;8.63;;
64297;SDS011;50639;53.270;7.956;2023-03-20T05:29:01;19.27;;;9.55;;
64297;SDS011;50639;53.270;7.956;2023-03-20T05:31:46;16.67;;;8.13;;
64297;SDS011;50639;53.270;7.956;2023-03-20T05:34:19;14.93;;;8.18;;
64297;SDS011;50639;53.270;7.956;2023-03-20T05:36:45;16.20;;;8.90;;
64297;SDS011;50639;53.270;7.956;2023-03-20T05:39:39;16.08;;;8.20;;
64297;SDS011;50639;53.270;7.956;2023-03-20T05:42:38;16.70;;;8.73;;
64297;SDS011;50639;53.270;7.956;2023-03-20T05:45:15;19.77;;;9.32;;
64297;SDS011;50639;53.270;7.956;2023-03-20T05:47:59;15.15;;;8.25;;
64297;SDS011;50639;53.270;7.956;2023-03-20T05:50:40;14.02;;;7.35;;
64297;SDS011;50639;53.270;7.956;2023-03-20T05:53:32;14.63;;;8.50;;
64297;SDS011;50639;53.270;7.956;2023-03-20T05:56:22;16.50;;;9.00;;
64297;SDS011;50639;53.270;7.956;2023-03-20T05:59:00;14.30;;;7.57;;
64297;SDS011;50639;53.270;7.956;2023-03-20T06:02:05;14.88;;;8.55;;
64297;SDS011;50639;53.270;7.956;2023-03-20T06:04:33;18.83;;;8.05;;
64297;SDS011;50639;53.270;7.956;2023-03-20T06:07:16;16.77;;;8.43;;
64297;SDS011;50639;53.270;7.956;2023-03-20T06:09:50;14.07;;;8.68;;
64297;SDS011;50639;53.270;7.956;2023-03-20T06:12:16;18.35;;;9.25;;
64297;SDS011;50639;53.270;7.956;2023-03-20T06:14:42;15.60;;;8.40;;
64297;SDS011;50639;53.270;7.956;2023-03-20T06:17:08;18.52;;;9.18;;
64297;SDS011;50639;53.270;7.956;2023-03-20T06:19:33;13.73;;;8.20;;
64297;SDS011;50639;53.270;7.956;2023-03-20T06:21:59;17.25;;;9.32;;
64297;SDS011;50639;53.270;7.956;2023-03-20T06:24:25;17.05;;;9.45;;
64297;SDS011;50639;53.270;7.956;2023-03-20T06:26:51;16.60;;;8.82;;
64297;SDS011;50639;53.270;7.956;2023-03-20T06:29:17;15.13;;;9.00;;
64297;SDS011;50639;53.270;7.956;2023-03-20T06:31:43;17.98;;;9.68;;
64297;SDS011;50639;53.270;7.956;2023-03-20T06:34:15;15.52;;;8.52;;
64297;SDS011;50639;53.270;7.956;2023-03-20T06:36:43;14.10;;;9.05;;
64297;SDS011;50639;53.270;7.956;2023-03-20T06:39:15;19.13;;;9.43;;
64297;SDS011;50639;53.270;7.956;2023-03-20T06:41:41;16.23;;;9.03;;
64297;SDS011;50639;53.270;7.956;2023-03-20T06:44:08;20.60;;;9.88;;
64297;SDS011;50639;53.270;7.956;2023-03-20T06:46:53;15.40;;;9.45;;
64297;SDS011;50639;53.270;7.956;2023-03-20T06:49:19;19.90;;;10.77;;
64297;SDS011;50639;53.270;7.956;2023-03-20T06:51:45;17.38;;;9.68;;
64297;SDS011;50639;53.270;7.956;2023-03-20T06:54:16;20.63;;;10.88;;
64297;SDS011;50639;53.270;7.956;2023-03-20T06:56:41;16.30;;;10.30;;
64297;SDS011;50639;53.270;7.956;2023-03-20T06:59:07;20.88;;;10.85;;
64297;SDS011;50639;53.270;7.956;2023-03-20T07:01:33;18.52;;;10.32;;
64297;SDS011;50639;53.270;7.956;2023-03-20T07:04:00;18.83;;;9.88;;
64297;SDS011;50639;53.270;7.956;2023-03-20T07:06:31;18.55;;;11.07;;
64297;SDS011;50639;53.270;7.956;2023-03-20T07:08:57;18.35;;;10.30;;
64297;SDS011;50639;53.270;7.956;2023-03-20T07:11:23;14.35;;;9.93;;
64297;SDS011;50639;53.270;7.956;2023-03-20T07:13:52;18.45;;;10.05;;
64297;SDS011;50639;53.270;7.956;2023-03-20T07:16:29;17.48;;;10.43;;
64297;SDS011;50639;53.270;7.956;2023-03-20T07:18:56;17.63;;;8.75;;
64297;SDS011;50639;53.270;7.956;2023-03-20T07:21:21;15.20;;;7.97;;
64297;SDS011;50639;53.270;7.956;2023-03-20T07:23:47;17.27;;;8.52;;
64297;SDS011;50639;53.270;7.956;2023-03-20T07:26:13;16.73;;;9.30;;
64297;SDS011;50639;53.270;7.956;2023-03-20T07:28:39;15.13;;;8.77;;
64297;SDS011;50639;53.270;7.956;2023-03-20T07:31:21;16.02;;;8.88;;
64297;SDS011;50639;53.270;7.956;2023-03-20T07:33:58;13.32;;;7.40;;
64297;SDS011;50639;53.270;7.956;2023-03-20T07:36:23;13.88;;;8.38;;
64297;SDS011;50639;53.270;7.956;2023-03-20T07:38:49;15.23;;;8.45;;
64297;SDS011;50639;53.270;7.956;2023-03-20T07:41:17;15.25;;;7.30;;
64297;SDS011;50639;53.270;7.956;2023-03-20T07:43:51;16.40;;;7.97;;
64297;SDS011;50639;53.270;7.956;2023-03-20T07:46:36;14.35;;;7.18;;
64297;SDS011;50639;53.270;7.956;2023-03-20T07:49:02;15.30;;;6.90;;
64297;SDS011;50639;53.270;7.956;2023-03-20T07:51:27;12.18;;;6.32;;
64297;SDS011;50639;53.270;7.956;2023-03-20T07:53:53;14.68;;;7.30;;
64297;SDS011;50639;53.270;7.956;2023-03-20T07:56:19;14.93;;;6.82;;
64297;SDS011;50639;53.270;7.956;2023-03-20T07:58:45;15.50;;;7.05;;
64297;SDS011;50639;53.270;7.956;2023-03-20T08:01:11;14.70;;;7.07;;
64297;SDS011;50639;53.270;7.956;2023-03-20T08:03:36;13.88;;;6.78;;
64297;SDS011;50639;53.270;7.956;2023-03-20T08:06:03;16.57;;;7.60;;
64297;SDS011;50639;53.270;7.956;2023-03-20T08:08:32;15.93;;;7.45;;
64297;SDS011;50639;53.270;7.956;2023-03-20T08:10:57;14.95;;;6.78;;
64297;SDS011;50639;53.270;7.956;2023-03-20T08:13:23;14.00;;;7.00;;
64297;SDS011;50639;53.270;7.956;2023-03-20T08:15:49;12.18;;;6.55;;
64297;SDS011;50639;53.270;7.956;2023-03-20T08:18:14;13.93;;;6.97;;
64297;SDS011;50639;53.270;7.956;2023-03-20T08:20:39;14.75;;;6.60;;
64297;SDS011;50639;53.270;7.956;2023-03-20T08:23:05;14.23;;;6.97;;
64297;SDS011;50639;53.270;7.956;2023-03-20T08:25:31;13.23;;;6.38;;
64297;SDS011;50639;53.270;7.956;2023-03-20T08:28:01;18.90;;;7.80;;
64297;SDS011;50639;53.270;7.956;2023-03-20T08:30:26;15.48;;;7.50;;
64297;SDS011;50639;53.270;7.956;2023-03-20T08:32:52;16.20;;;7.65;;
64297;SDS011;50639;53.270;7.956;2023-03-20T08:35:17;14.70;;;7.68;;
64297;SDS011;50639;53.270;7.956;2023-03-20T08:37:43;14.68;;;7.78;;
64297;SDS011;50639;53.270;7.956;2023-03-20T08:40:09;15.07;;;8.27;;
64297;SDS011;50639;53.270;7.956;2023-03-20T08:42:36;11.43;;;6.68;;
64297;SDS011;50639;53.270;7.956;2023-03-20T08:45:01;15.43;;;8.40;;
64297;SDS011;50639;53.270;7.956;2023-03-20T08:47:26;10.93;;;6.93;;
64297;SDS011;50639;53.270;7.956;2023-03-20T08:49:52;11.45;;;7.03;;
64297;SDS011;50639;53.270;7.956;2023-03-20T08:52:18;16.50;;;7.93;;
64297;SDS011;50639;53.270;7.956;2023-03-20T08:54:43;14.98;;;7.60;;
64297;SDS011;50639;53.270;7.956;2023-03-20T08:57:08;13.77;;;7.03;;
64297;SDS011;50639;53.270;7.956;2023-03-20T08:59:34;12.57;;;7.57;;
64297;SDS011;50639;53.270;7.956;2023-03-20T09:02:00;14.30;;;7.82;;
64297;SDS011;50639;53.270;7.956;2023-03-20T09:04:28;15.68;;;7.63;;
64297;SDS011;50639;53.270;7.956;2023-03-20T09:06:56;13.55;;;8.05;;
64297;SDS011;50639;53.270;7.956;2023-03-20T09:09:21;12.20;;;7.03;;
64297;SDS011;50639;53.270;7.956;2023-03-20T09:11:54;13.73;;;7.00;;
64297;SDS011;50639;53.270;7.956;2023-03-20T09:14:21;13.70;;;6.95;;
64297;SDS011;50639;53.270;7.956;2023-03-20T09:16:48;15.05;;;7.10;;
64297;SDS011;50639;53.270;7.956;2023-03-20T09:19:15;15.40;;;6.75;;
64297;SDS011;50639;53.270;7.956;2023-03-20T09:21:42;13.98;;;7.15;;
64297;SDS011;50639;53.270;7.956;2023-03-20T09:24:07;10.93;;;6.65;;
64297;SDS011;50639;53.270;7.956;2023-03-20T09:26:33;12.27;;;7.30;;
64297;SDS011;50639;53.270;7.956;2023-03-20T09:28:58;14.27;;;7.15;;
64297;SDS011;50639;53.270;7.956;2023-03-20T09:31:24;12.35;;;6.30;;
64297;SDS011;50639;53.270;7.956;2023-03-20T09:33:49;12.85;;;6.13;;
64297;SDS011;50639;53.270;7.956;2023-03-20T09:36:15;13.55;;;7.70;;
64297;SDS011;50639;53.270;7.956;2023-03-20T09:38:41;11.95;;;6.63;;
64297;SDS011;50639;53.270;7.956;2023-03-20T09:41:11;12.05;;;6.05;;
64297;SDS011;50639;53.270;7.956;2023-03-20T09:49:32;16.20;;;7.13;;
64297;SDS011;50639;53.270;7.956;2023-03-20T09:54:44;10.32;;;6.25;;
64297;SDS011;50639;53.270;7.956;2023-03-20T09:57:18;13.73;;;6.60;;
64297;SDS011;50639;53.270;7.956;2023-03-20T09:59:49;12.75;;;6.90;;
64297;SDS011;50639;53.270;7.956;2023-03-20T10:05:24;13.60;;;6.65;;
64297;SDS011;50639;53.270;7.956;2023-03-20T10:07:50;14.65;;;7.30;;
64297;SDS011;50639;53.270;7.956;2023-03-20T10:10:37;12.20;;;5.90;;
64297;SDS011;50639;53.270;7.956;2023-03-20T10:15:59;13.75;;;6.22;;
64297;SDS011;50639;53.270;7.956;2023-03-20T10:18:36;11.13;;;6.03;;
64297;SDS011;50639;53.270;7.956;2023-03-20T10:21:10;15.75;;;7.03;;
64297;SDS011;50639;53.270;7.956;2023-03-20T10:23:59;12.70;;;6.25;;
64297;SDS011;50639;53.270;7.956;2023-03-20T10:26:28;17.35;;;6.65;;
64297;SDS011;50639;53.270;7.956;2023-03-20T10:28:58;14.15;;;5.93;;
64297;SDS011;50639;53.270;7.956;2023-03-20T10:37:25;14.30;;;6.57;;
64297;SDS011;50639;53.270;7.956;2023-03-20T10:42:40;13.73;;;7.00;;
64297;SDS011;50639;53.270;7.956;2023-03-20T10:47:54;11.18;;;4.97;;
64297;SDS011;50639;53.270;7.956;2023-03-20T10:50:24;12.32;;;6.05;;
64297;SDS011;50639;53.270;7.956;2023-03-20T10:52:54;11.85;;;5.90;;
64297;SDS011;50639;53.270;7.956;2023-03-20T10:55:24;9.57;;;5.05;;
64297;SDS011;50639;53.270;7.956;2023-03-20T10:57:56;15.35;;;5.95;;
64297;SDS011;50639;53.270;7.956;2023-03-20T11:00:27;11.32;;;5.70;;
64297;SDS011;50639;53.270;7.956;2023-03-20T11:02:52;10.88;;;5.53;;
64297;SDS011;50639;53.270;7.956;2023-03-20T11:08:08;14.80;;;5.78;;
64297;SDS011;50639;53.270;7.956;2023-03-20T11:10:37;12.38;;;5.68;;
64297;SDS011;50639;53.270;7.956;2023-03-20T11:15:41;12.38;;;4.82;;
64297;SDS011;50639;53.270;7.956;2023-03-20T11:18:09;11.70;;;5.28;;
64297;SDS011;50639;53.270;7.956;2023-03-20T11:20:47;17.90;;;5.75;;
64297;SDS011;50639;53.270;7.956;2023-03-20T11:23:17;11.87;;;5.07;;
64297;SDS011;50639;53.270;7.956;2023-03-20T11:25:47;12.43;;;5.05;;
64297;SDS011;50639;53.270;7.956;2023-03-20T11:28:20;11.70;;;5.18;;
64297;SDS011;50639;53.270;7.956;2023-03-20T11:33:45;13.10;;;5.45;;
64297;SDS011;50639;53.270;7.956;2023-03-20T11:36:26;13.75;;;5.63;;
64297;SDS011;50639;53.270;7.956;2023-03-20T11:39:03;13.68;;;5.47;;
64297;SDS011;50639;53.270;7.956;2023-03-20T11:46:55;16.48;;;5.63;;
64297;SDS011;50639;53.270;7.956;2023-03-20T11:49:22;11.73;;;5.68;;
64297;SDS011;50639;53.270;7.956;2023-03-20T11:51:49;13.57;;;5.88;;
64297;SDS011;50639;53.270;7.956;2023-03-20T11:54:19;12.35;;;6.28;;
64297;SDS011;50639;53.270;7.956;2023-03-20T11:56:57;11.95;;;6.05;;
64297;SDS011;50639;53.270;7.956;2023-03-20T11:59:33;12.33;;;5.83;;
64297;SDS011;50639;53.270;7.956;2023-03-20T12:02:03;14.85;;;6.40;;
64297;SDS011;50639;53.270;7.956;2023-03-20T12:04:41;14.43;;;6.35;;
64297;SDS011;50639;53.270;7.956;2023-03-20T12:07:27;15.20;;;6.63;;
64297;SDS011;50639;53.270;7.956;2023-03-20T12:10:06;12.77;;;6.22;;
64297;SDS011;50639;53.270;7.956;2023-03-20T12:12:49;11.55;;;6.18;;
64297;SDS011;50639;53.270;7.956;2023-03-20T12:18:00;13.43;;;6.70;;
64297;SDS011;50639;53.270;7.956;2023-03-20T12:23:32;16.27;;;6.57;;
64297;SDS011;50639;53.270;7.956;2023-03-20T12:36:15;17.95;;;7.13;;
64297;SDS011;50639;53.270;7.956;2023-03-20T12:38:43;14.25;;;7.32;;
64297;SDS011;50639;53.270;7.956;2023-03-20T12:41:14;15.25;;;7.80;;
64297;SDS011;50639;53.270;7.956;2023-03-20T12:43:51;13.48;;;7.20;;
64297;SDS011;50639;53.270;7.956;2023-03-20T12:46:24;17.33;;;7.60;;
64297;SDS011;50639;53.270;7.956;2023-03-20T13:02:14;14.15;;;7.57;;
64297;SDS011;50639;53.270;7.956;2023-03-20T13:13:11;16.45;;;7.40;;
64297;SDS011;50639;53.270;7.956;2023-03-20T13:18:39;15.50;;;7.70;;
64297;SDS011;50639;53.270;7.956;2023-03-20T13:21:15;12.88;;;6.90;;
64297;SDS011;50639;53.270;7.956;2023-03-20T13:24:01;14.73;;;7.00;;
64297;SDS011;50639;53.270;7.956;2023-03-20T13:29:44;14.25;;;6.95;;
64297;SDS011;50639;53.270;7.956;2023-03-20T13:37:56;16.98;;;8.15;;
64297;SDS011;50639;53.270;7.956;2023-03-20T13:40:32;16.40;;;8.23;;
64297;SDS011;50639;53.270;7.956;2023-03-20T13:45:45;15.95;;;8.05;;
64297;SDS011;50639;53.270;7.956;2023-03-20T14:04:52;17.40;;;6.20;;
64297;SDS011;50639;53.270;7.956;2023-03-20T14:07:26;12.52;;;5.60;;
64297;SDS011;50639;53.270;7.956;2023-03-20T14:09:53;15.40;;;6.70;;
64297;SDS011;50639;53.270;7.956;2023-03-20T14:12:19;17.77;;;6.63;;
64297;SDS011;50639;53.270;7.956;2023-03-20T14:14:51;16.60;;;6.10;;
64297;SDS011;50639;53.270;7.956;2023-03-20T14:17:24;17.40;;;7.00;;
64297;SDS011;50639;53.270;7.956;2023-03-20T14:19:50;16.63;;;6.38;;
64297;SDS011;50639;53.270;7.956;2023-03-20T14:22:28;11.98;;;6.25;;
64297;SDS011;50639;53.270;7.956;2023-03-20T14:24:59;13.60;;;5.40;;
64297;SDS011;50639;53.270;7.956;2023-03-20T14:27:36;12.57;;;5.70;;
64297;SDS011;50639;53.270;7.956;2023-03-20T14:35:45;11.35;;;4.70;;
64297;SDS011;50639;53.270;7.956;2023-03-20T14:38:18;10.32;;;4.43;;
64297;SDS011;50639;53.270;7.956;2023-03-20T14:43:14;12.77;;;4.78;;
64297;SDS011;50639;53.270;7.956;2023-03-20T14:45:53;11.07;;;4.78;;
64297;SDS011;50639;53.270;7.956;2023-03-20T14:48:37;10.48;;;4.50;;
64297;SDS011;50639;53.270;7.956;2023-03-20T14:53:57;12.70;;;5.82;;
64297;SDS011;50639;53.270;7.956;2023-03-20T14:56:45;15.32;;;6.68;;
64297;SDS011;50639;53.270;7.956;2023-03-20T14:59:11;12.13;;;5.35;;
64297;SDS011;50639;53.270;7.956;2023-03-20T15:02:00;13.73;;;5.30;;
64297;SDS011;50639;53.270;7.956;2023-03-20T15:04:42;15.23;;;5.63;;
64297;SDS011;50639;53.270;7.956;2023-03-20T15:07:20;12.75;;;6.00;;
64297;SDS011;50639;53.270;7.956;2023-03-20T15:09:50;12.45;;;5.95;;
64297;SDS011;50639;53.270;7.956;2023-03-20T15:12:20;18.17;;;6.82;;
64297;SDS011;50639;53.270;7.956;2023-03-20T15:17:15;16.60;;;6.65;;
64297;SDS011;50639;53.270;7.956;2023-03-20T15:19:43;13.23;;;6.00;;
64297;SDS011;50639;53.270;7.956;2023-03-20T15:22:13;19.23;;;6.50;;
64297;SDS011;50639;53.270;7.956;2023-03-20T15:24:41;15.25;;;6.68;;
64297;SDS011;50639;53.270;7.956;2023-03-20T15:27:15;12.00;;;6.07;;
64297;SDS011;50639;53.270;7.956;2023-03-20T15:29:43;13.93;;;6.80;;
64297;SDS011;50639;53.270;7.956;2023-03-20T15:32:12;14.82;;;6.93;;
64297;SDS011;50639;53.270;7.956;2023-03-20T15:34:38;13.07;;;5.60;;
64297;SDS011;50639;53.270;7.956;2023-03-20T15:37:05;22.33;;;6.65;;
64297;SDS011;50639;53.270;7.956;2023-03-20T15:39:40;13.73;;;5.88;;
64297;SDS011;50639;53.270;7.956;2023-03-20T15:42:09;15.63;;;6.15;;
64297;SDS011;50639;53.270;7.956;2023-03-20T15:44:38;13.02;;;5.28;;
64297;SDS011;50639;53.270;7.956;2023-03-20T15:49:34;11.90;;;4.35;;
64297;SDS011;50639;53.270;7.956;2023-03-20T15:52:00;8.80;;;4.35;;
64297;SDS011;50639;53.270;7.956;2023-03-20T15:54:30;10.10;;;4.25;;
64297;SDS011;50639;53.270;7.956;2023-03-20T15:56:58;12.45;;;4.00;;
64297;SDS011;50639;53.270;7.956;2023-03-20T15:59:27;14.80;;;5.47;;
64297;SDS011;50639;53.270;7.956;2023-03-20T16:01:56;9.10;;;4.10;;
64297;SDS011;50639;53.270;7.956;2023-03-20T16:04:23;15.10;;;5.03;;
64297;SDS011;50639;53.270;7.956;2023-03-20T16:09:22;10.30;;;4.35;;
64297;SDS011;50639;53.270;7.956;2023-03-20T16:11:56;10.02;;;5.50;;
64297;SDS011;50639;53.270;7.956;2023-03-20T16:14:25;17.88;;;4.85;;
64297;SDS011;50639;53.270;7.956;2023-03-20T16:16:53;11.82;;;4.80;;
64297;SDS011;50639;53.270;7.956;2023-03-20T16:19:21;8.88;;;4.68;;
64297;SDS011;50639;53.270;7.956;2023-03-20T16:21:52;8.93;;;4.75;;
64297;SDS011;50639;53.270;7.956;2023-03-20T16:24:23;9.07;;;3.92;;
64297;SDS011;50639;53.270;7.956;2023-03-20T16:26:52;11.23;;;4.40;;
64297;SDS011;50639;53.270;7.956;2023-03-20T16:29:20;7.45;;;4.10;;
64297;SDS011;50639;53.270;7.956;2023-03-20T16:34:24;9.32;;;4.25;;
64297;SDS011;50639;53.270;7.956;2023-03-20T16:36:57;6.57;;;3.65;;
64297;SDS011;50639;53.270;7.956;2023-03-20T16:39:26;8.60;;;4.05;;
64297;SDS011;50639;53.270;7.956;2023-03-20T16:42:09;11.13;;;4.30;;
64297;SDS011;50639;53.270;7.956;2023-03-20T16:44:55;9.10;;;4.70;;
64297;SDS011;50639;53.270;7.956;2023-03-20T16:47:23;9.40;;;4.72;;
64297;SDS011;50639;53.270;7.956;2023-03-20T16:50:04;8.00;;;4.57;;
64297;SDS011;50639;53.270;7.956;2023-03-20T16:55:13;8.15;;;4.22;;
64297;SDS011;50639;53.270;7.956;2023-03-20T16:57:41;8.57;;;4.50;;
64297;SDS011;50639;53.270;7.956;2023-03-20T17:00:20;9.85;;;4.75;;
64297;SDS011;50639;53.270;7.956;2023-03-20T17:05:45;11.55;;;4.93;;
64297;SDS011;50639;53.270;7.956;2023-03-20T17:08:14;10.95;;;5.35;;
64297;SDS011;50639;53.270;7.956;2023-03-20T17:10:48;10.80;;;5.10;;
64297;SDS011;50639;53.270;7.956;2023-03-20T17:13:18;9.82;;;4.80;;
64297;SDS011;50639;53.270;7.956;2023-03-20T17:15:44;11.45;;;5.30;;
64297;SDS011;50639;53.270;7.956;2023-03-20T17:18:11;12.52;;;5.28;;
64297;SDS011;50639;53.270;7.956;2023-03-20T17:20:37;10.85;;;5.85;;
64297;SDS011;50639;53.270;7.956;2023-03-20T17:23:04;15.73;;;7.15;;
64297;SDS011;50639;53.270;7.956;2023-03-20T17:25:36;17.48;;;12.82;;
64297;SDS011;50639;53.270;7.956;2023-03-20T17:28:09;11.52;;;5.82;;
64297;SDS011;50639;53.270;7.956;2023-03-20T17:30:48;12.43;;;5.55;;
64297;SDS011;50639;53.270;7.956;2023-03-20T17:33:15;12.60;;;9.75;;
64297;SDS011;50639;53.270;7.956;2023-03-20T17:35:43;11.57;;;6.43;;
64297;SDS011;50639;53.270;7.956;2023-03-20T17:38:19;18.92;;;10.80;;
64297;SDS011;50639;53.270;7.956;2023-03-20T17:40:46;14.75;;;6.28;;
64297;SDS011;50639;53.270;7.956;2023-03-20T17:43:13;9.82;;;5.20;;
64297;SDS011;50639;53.270;7.956;2023-03-20T17:45:40;15.60;;;5.87;;
64297;SDS011;50639;53.270;7.956;2023-03-20T17:48:09;12.90;;;5.88;;
64297;SDS011;50639;53.270;7.956;2023-03-20T17:50:42;10.57;;;6.32;;
64297;SDS011;50639;53.270;7.956;2023-03-20T17:55:37;14.48;;;6.60;;
64297;SDS011;50639;53.270;7.956;2023-03-20T17:58:03;13.05;;;6.53;;
64297;SDS011;50639;53.270;7.956;2023-03-20T18:00:28;8.13;;;5.18;;
64297;SDS011;50639;53.270;7.956;2023-03-20T18:02:54;12.55;;;6.68;;
64297;SDS011;50639;53.270;7.956;2023-03-20T18:05:19;10.75;;;5.18;;
64297;SDS011;50639;53.270;7.956;2023-03-20T18:07:45;10.63;;;6.13;;